Time;durP1;ratioP1;P1;durP2;ratioP2;P2;SDS_P1;SDS_P2;PMS_P1;PMS_P2;Temp;Humidity;BMP_temperature;BMP_pressure;BME280_temperature;BME280_humidity;BME280_pressure;Samples;Min_cycle;Max_cycle;Signal;HPM_P1;HPM_P2
2021/11/02 00:01:30;;;;;;;;;;;16.50;78.00;;;;;;4256033;27;20316;-69
2021/11/02 00:03:32;;;;;;;;;;;16.60;78.10;;;;;;4264240;27;19922;-69
2021/11/02 00:05:35;;;;;;;;;;;16.60;78.00;;;;;;4259504;27;19925;-70
2021/11/02 00:07:38;;;;;;;;;;;16.60;78.00;;;;;;4247214;27;19992;-68
2021/11/02 00:09:42;;;;;;;;;;;16.50;78.00;;;;;;4250285;27;19919;-70
2021/11/02 00:11:47;;;;;;;;;;;16.60;78.10;;;;;;4255928;27;19920;-69
2021/11/02 00:13:51;;;;;;;;;;;16.50;78.00;;;;;;4247040;27;19922;-70
2021/11/02 00:15:57;;;;;;;;;;;16.50;77.90;;;;;;4259570;27;19919;-71
2021/11/02 00:18:05;;;;;;;;;;;16.60;78.10;;;;;;4247731;27;19972;-73
2021/11/02 00:20:11;;;;;;;;;;;16.60;78.00;;;;;;4251939;27;19919;-70
2021/11/02 00:22:15;;;;;;;;;;;16.60;78.10;;;;;;4254706;27;19919;-70
2021/11/02 00:24:39;;;;;;;;;;;16.60;78.00;;;;;;4247178;27;19920;-68
2021/11/02 00:26:43;;;;;;;;;;;16.60;78.00;;;;;;4259020;27;19923;-69
2021/11/02 00:28:47;;;;;;;;;;;16.60;78.00;;;;;;4247146;27;20336;-67
2021/11/02 00:30:49;;;;;;;;;;;16.50;78.00;;;;;;4254057;27;19979;-68
2021/11/02 00:32:53;;;;;;;;;;;16.60;78.00;;;;;;4251261;27;19923;-71
2021/11/02 00:34:57;;;;;;;;;;;16.50;78.00;;;;;;4247887;27;20332;-70
2021/11/02 00:37:00;;;;;;;;;;;16.60;78.00;;;;;;4254339;27;19979;-68
2021/11/02 00:39:03;;;;;;;;;;;16.50;78.00;;;;;;4263682;27;19923;-69
2021/11/02 00:41:06;;;;;;;;;;;16.60;78.00;;;;;;4256434;27;19944;-71
2021/11/02 00:43:10;;;;;;;;;;;16.50;77.90;;;;;;4257721;27;19918;-68
2021/11/02 00:45:15;;;;;;;;;;;16.50;78.00;;;;;;4261861;27;20053;-71
2021/11/02 00:47:22;;;;;;;;;;;16.50;78.00;;;;;;4252075;27;19964;-70
2021/11/02 00:49:25;;;;;;;;;;;16.50;78.00;;;;;;4263833;27;20384;-68
2021/11/02 00:51:28;;;;;;;;;;;16.50;78.00;;;;;;4256037;27;20470;-69
2021/11/02 00:53:31;;;;;;;;;;;16.50;78.00;;;;;;4257994;27;19979;-68
2021/11/02 00:55:34;;;;;;;;;;;16.50;78.00;;;;;;4262204;27;19935;-69
2021/11/02 00:57:37;;;;;;;;;;;16.50;78.00;;;;;;4251906;27;19928;-69
2021/11/02 00:59:40;;;;;;;;;;;16.50;78.00;;;;;;4263430;27;19927;-68
2021/11/02 01:01:44;;;;;;;;;;;16.50;77.90;;;;;;4256936;27;19972;-70
2021/11/02 01:03:46;;;;;;;;;;;16.50;77.90;;;;;;4259264;27;19972;-68
2021/11/02 01:05:49;;;;;;;;;;;16.50;77.90;;;;;;4265778;27;19919;-68
2021/11/02 01:07:52;;;;;;;;;;;16.50;77.90;;;;;;4255296;27;19920;-68
2021/11/02 01:09:54;;;;;;;;;;;16.50;78.00;;;;;;4267072;27;19919;-68
2021/11/02 01:11:57;;;;;;;;;;;16.50;78.00;;;;;;4261337;27;19919;-69
2021/11/02 01:13:59;;;;;;;;;;;16.50;78.00;;;;;;4260048;27;19919;-68
2021/11/02 01:16:03;;;;;;;;;;;16.50;78.00;;;;;;4266872;27;19946;-70
2021/11/02 01:18:07;;;;;;;;;;;16.50;78.00;;;;;;4254162;27;19923;-70
2021/11/02 01:20:11;;;;;;;;;;;16.50;78.00;;;;;;4266827;27;19927;-70
2021/11/02 01:22:14;;;;;;;;;;;16.50;78.00;;;;;;4261469;27;19919;-68
2021/11/02 01:24:16;;;;;;;;;;;16.50;78.00;;;;;;4258890;27;19923;-68
2021/11/02 01:26:19;;;;;;;;;;;16.50;78.00;;;;;;4266566;27;19972;-70
2021/11/02 01:28:22;;;;;;;;;;;16.50;78.00;;;;;;4262294;27;19926;-67
2021/11/02 01:30:24;;;;;;;;;;;16.50;78.00;;;;;;4249494;27;19972;-68
2021/11/02 01:32:27;;;;;;;;;;;16.50;78.00;;;;;;4253132;27;19980;-70
2021/11/02 01:34:31;;;;;;;;;;;16.50;78.00;;;;;;4258029;27;19919;-69
2021/11/02 01:36:34;;;;;;;;;;;16.50;78.00;;;;;;4250899;27;19964;-67
2021/11/02 01:38:36;;;;;;;;;;;16.50;78.10;;;;;;4254413;27;19923;-71
2021/11/02 01:40:39;;;;;;;;;;;16.50;78.00;;;;;;4266033;27;19919;-70
2021/11/02 01:42:42;;;;;;;;;;;16.50;78.00;;;;;;4263244;27;19922;-69
2021/11/02 01:44:45;;;;;;;;;;;16.40;78.00;;;;;;4256937;27;19923;-68
2021/11/02 01:46:48;;;;;;;;;;;16.50;78.10;;;;;;4266985;27;19971;-71
2021/11/02 01:48:50;;;;;;;;;;;16.40;78.00;;;;;;4255640;27;19973;-70
2021/11/02 01:50:54;;;;;;;;;;;16.50;78.10;;;;;;4247039;27;19919;-70
2021/11/02 01:52:58;;;;;;;;;;;16.50;78.00;;;;;;4264103;27;19923;-68
2021/11/02 01:55:01;;;;;;;;;;;16.50;78.00;;;;;;4255978;27;19919;-68
2021/11/02 01:57:04;;;;;;;;;;;16.40;78.00;;;;;;4266579;27;19919;-70
2021/11/02 01:59:07;;;;;;;;;;;16.40;78.00;;;;;;4237428;27;19923;-67
2021/11/02 02:01:11;;;;;;;;;;;16.40;78.00;;;;;;4264685;27;19918;-69
2021/11/02 02:03:20;;;;;;;;;;;16.40;78.00;;;;;;4264377;27;19926;-69
2021/11/02 02:05:26;;;;;;;;;;;16.40;78.00;;;;;;4255945;27;19919;-67
2021/11/02 02:07:33;;;;;;;;;;;16.40;78.00;;;;;;4267060;27;19971;-69
2021/11/02 02:09:41;;;;;;;;;;;16.40;78.00;;;;;;4255243;27;19972;-77
2021/11/02 02:11:47;;;;;;;;;;;16.40;78.00;;;;;;4266915;27;19971;-68
2021/11/02 02:13:51;;;;;;;;;;;16.40;78.00;;;;;;4262944;27;20316;-68
2021/11/02 02:16:00;;;;;;;;;;;16.40;78.00;;;;;;4256085;27;19919;-70
2021/11/02 02:18:06;;;;;;;;;;;16.40;78.00;;;;;;4266036;27;20387;-69
2021/11/02 02:20:14;;;;;;;;;;;16.40;78.10;;;;;;4252823;27;19923;-70
2021/11/02 02:22:29;;;;;;;;;;;16.40;78.00;;;;;;4265846;27;19948;-68
2021/11/02 02:24:39;;;;;;;;;;;16.40;78.00;;;;;;4260991;27;19964;-67
2021/11/02 02:26:46;;;;;;;;;;;16.40;78.00;;;;;;4253158;27;19979;-67
2021/11/02 02:28:56;;;;;;;;;;;16.40;78.00;;;;;;4250045;27;19930;-71
2021/11/02 02:31:01;;;;;;;;;;;16.40;78.00;;;;;;4260239;27;20379;-69
2021/11/02 02:33:04;;;;;;;;;;;16.40;78.10;;;;;;4248418;27;19931;-69
2021/11/02 02:35:11;;;;;;;;;;;16.40;78.10;;;;;;4257099;27;19971;-67
2021/11/02 02:37:14;;;;;;;;;;;16.40;78.00;;;;;;4251484;27;19977;-71
2021/11/02 02:39:21;;;;;;;;;;;16.40;78.00;;;;;;4232057;27;19920;-68
2021/11/02 02:41:25;;;;;;;;;;;16.40;78.00;;;;;;4259892;27;19981;-66
2021/11/02 02:43:28;;;;;;;;;;;16.40;78.00;;;;;;4248692;27;19923;-67
2021/11/02 02:45:33;;;;;;;;;;;16.40;78.00;;;;;;4257623;27;19919;-67
2021/11/02 02:47:37;;;;;;;;;;;16.40;78.10;;;;;;4251502;27;19919;-68
2021/11/02 02:49:40;;;;;;;;;;;16.40;78.00;;;;;;4249661;27;19964;-71
2021/11/02 02:51:44;;;;;;;;;;;16.40;78.00;;;;;;4259567;27;19919;-70
2021/11/02 02:53:47;;;;;;;;;;;16.30;78.00;;;;;;4248296;27;20432;-70
2021/11/02 02:55:50;;;;;;;;;;;16.40;78.00;;;;;;4256683;27;19927;-68
2021/11/02 02:57:54;;;;;;;;;;;16.40;78.00;;;;;;4251622;27;19919;-69
2021/11/02 02:59:57;;;;;;;;;;;16.40;78.10;;;;;;4248946;27;19919;-69
2021/11/02 03:02:01;;;;;;;;;;;16.40;78.10;;;;;;4259520;27;19919;-70
2021/11/02 03:04:05;;;;;;;;;;;16.30;77.90;;;;;;4247978;27;20455;-69
2021/11/02 03:06:10;;;;;;;;;;;16.40;78.00;;;;;;4256411;27;19922;-69
2021/11/02 03:08:13;;;;;;;;;;;16.40;78.00;;;;;;4251316;27;19920;-70
2021/11/02 03:10:18;;;;;;;;;;;16.40;78.00;;;;;;4249069;27;19919;-68
2021/11/02 03:12:24;;;;;;;;;;;16.40;78.00;;;;;;4258991;27;19919;-68
2021/11/02 03:14:31;;;;;;;;;;;16.30;78.00;;;;;;4247944;27;19980;-67
2021/11/02 03:17:13;;;;;;;;;;;16.40;78.00;;;;;;4256883;27;19988;-68
2021/11/02 03:19:34;;;;;;;;;;;16.30;78.00;;;;;;4245090;27;19923;-68
2021/11/02 03:48:00;;;;;;;;;;;16.30;78.00;;;;;;4247355;27;20352;-69
2021/11/02 03:50:16;;;;;;;;;;;16.30;78.00;;;;;;4247535;27;19920;-70
2021/11/02 03:54:48;;;;;;;;;;;16.30;78.00;;;;;;4253100;27;19964;-71
2021/11/02 03:59:30;;;;;;;;;;;16.30;78.10;;;;;;4258756;27;19965;-68
2021/11/02 05:49:20;;;;;;;;;;;16.20;78.30;;;;;;4194262;28;20285;-67
2021/11/02 05:51:40;;;;;;;;;;;16.20;78.30;;;;;;4240533;27;19979;-70
2021/11/02 05:54:33;;;;;;;;;;;16.20;78.20;;;;;;4252493;27;19919;-68
2021/11/02 06:00:28;;;;;;;;;;;16.20;78.20;;;;;;4249142;27;19920;-68
2021/11/02 06:07:03;;;;;;;;;;;16.20;78.20;;;;;;4252455;27;19964;-65
2021/11/02 06:28:18;;;;;;;;;;;16.20;78.20;;;;;;4252949;27;19963;-65
2021/11/02 06:31:12;;;;;;;;;;;16.10;78.70;;;;;;4248844;27;19923;-65
2021/11/02 06:33:03;;;;;;;;;;;16.20;78.20;;;;;;4240732;27;20053;-65
2021/11/02 06:35:19;;;;;;;;;;;16.20;78.20;;;;;;4252869;27;19923;-69
2021/11/02 06:37:52;;;;;;;;;;;16.20;78.20;;;;;;4256137;27;20514;-71
2021/11/02 07:20:27;;;;;;;;;;;16.10;77.90;;;;;;4261131;27;19915;-66
2021/11/02 07:22:45;;;;;;;;;;;16.10;77.90;;;;;;4229927;28;19919;-70
2021/11/02 08:46:42;;;;;;;;;;;16.20;78.30;;;;;;4214050;27;19964;-71
2021/11/02 08:48:59;;;;;;;;;;;16.10;77.40;;;;;;4242491;27;19926;-71
2021/11/02 08:51:11;;;;;;;;;;;16.10;78.20;;;;;;4272407;27;20133;-71
2021/11/02 08:53:25;;;;;;;;;;;16.10;77.50;;;;;;4250155;28;19915;-71
2021/11/02 08:55:51;;;;;;;;;;;16.10;78.50;;;;;;4223619;28;19915;-72
2021/11/02 08:58:19;;;;;;;;;;;16.00;77.60;;;;;;4267155;27;20137;-70
2021/11/02 09:00:41;;;;;;;;;;;16.00;77.80;;;;;;4238684;27;20220;-71
2021/11/02 09:03:15;;;;;;;;;;;16.00;77.40;;;;;;4246022;28;19915;-71
2021/11/02 09:05:25;;;;;;;;;;;16.00;77.60;;;;;;4238131;28;19995;-71
2021/11/02 09:07:28;;;;;;;;;;;16.00;77.20;;;;;;4253764;27;19919;-71
2021/11/02 09:09:34;;;;;;;;;;;16.00;76.90;;;;;;4239729;27;19923;-71
2021/11/02 09:12:00;;;;;;;;;;;16.10;76.70;;;;;;4251135;28;20180;-70
2021/11/02 09:14:21;;;;;;;;;;;16.00;76.90;;;;;;4267028;27;19923;-71
2021/11/02 09:17:02;;;;;;;;;;;15.90;76.60;;;;;;4228712;28;19926;-71
2021/11/02 09:19:06;;;;;;;;;;;15.90;76.50;;;;;;4249309;27;19919;-71
2021/11/02 09:21:09;;;;;;;;;;;16.00;77.10;;;;;;4259048;27;19919;-71
2021/11/02 09:23:12;;;;;;;;;;;16.00;76.50;;;;;;4259177;27;20319;-71
2021/11/02 09:25:15;;;;;;;;;;;16.00;76.90;;;;;;4262664;27;19975;-70
2021/11/02 09:27:19;;;;;;;;;;;16.00;77.10;;;;;;4262239;27;20497;-71
2021/11/02 09:29:22;;;;;;;;;;;16.00;76.50;;;;;;4253011;27;19919;-68
2021/11/02 09:31:27;;;;;;;;;;;16.00;76.70;;;;;;4248888;27;19984;-71
2021/11/02 09:33:30;;;;;;;;;;;16.00;77.10;;;;;;4251996;27;19920;-70
2021/11/02 09:35:34;;;;;;;;;;;16.10;76.90;;;;;;4255697;27;19923;-68
2021/11/02 09:37:37;;;;;;;;;;;16.20;76.80;;;;;;4265902;27;19919;-65
2021/11/02 09:39:41;;;;;;;;;;;16.50;76.50;;;;;;4259930;27;19923;-66
2021/11/02 09:41:59;;;;;;;;;;;16.60;76.10;;;;;;4264077;27;19968;-65
2021/11/02 09:44:16;;;;;;;;;;;16.80;75.70;;;;;;4263431;27;19923;-70
2021/11/02 09:46:41;;;;;;;;;;;17.00;75.30;;;;;;4263006;27;19919;-70
2021/11/02 09:49:04;;;;;;;;;;;17.10;74.90;;;;;;4265491;27;20442;-74
2021/11/02 09:51:28;;;;;;;;;;;17.20;74.50;;;;;;4251785;27;19972;-64
2021/11/02 09:54:01;;;;;;;;;;;17.30;74.30;;;;;;4241153;27;19919;-66
2021/11/02 09:56:12;;;;;;;;;;;17.50;74.00;;;;;;4255541;27;19923;-64
2021/11/02 09:58:16;;;;;;;;;;;17.60;73.70;;;;;;4265304;27;19919;-64
2021/11/02 10:00:27;;;;;;;;;;;17.70;73.40;;;;;;4252652;27;20498;-68
2021/11/02 10:02:45;;;;;;;;;;;17.70;73.20;;;;;;4247894;27;19980;-64
2021/11/02 10:04:56;;;;;;;;;;;17.80;73.00;;;;;;4234087;27;19924;-65
2021/11/02 10:07:13;;;;;;;;;;;17.90;72.80;;;;;;4260332;27;19918;-64
2021/11/02 10:09:24;;;;;;;;;;;18.00;72.70;;;;;;4263052;27;19922;-67
2021/11/02 10:11:32;;;;;;;;;;;18.10;72.60;;;;;;4253901;27;19969;-67
2021/11/02 10:13:49;;;;;;;;;;;18.10;72.40;;;;;;4246981;27;19968;-65
2021/11/02 10:15:59;;;;;;;;;;;18.20;72.20;;;;;;4261425;27;19980;-67
2021/11/02 10:18:18;;;;;;;;;;;18.30;72.10;;;;;;4248007;27;19923;-64
2021/11/02 10:20:29;;;;;;;;;;;18.30;71.90;;;;;;4254421;27;19919;-65
2021/11/02 10:23:09;;;;;;;;;;;18.40;71.70;;;;;;4266621;27;20168;-65
2021/11/02 10:25:13;;;;;;;;;;;18.40;71.60;;;;;;4270108;27;19927;-66
2021/11/02 10:27:37;;;;;;;;;;;18.50;71.50;;;;;;4265583;27;19919;-65
2021/11/02 10:29:58;;;;;;;;;;;18.50;71.40;;;;;;4259108;27;19915;-66
2021/11/02 10:32:03;;;;;;;;;;;18.60;71.00;;;;;;4259016;27;19988;-66
2021/11/02 10:34:10;;;;;;;;;;;18.60;70.50;;;;;;4248159;27;20436;-64
2021/11/02 10:36:17;;;;;;;;;;;18.70;70.30;;;;;;4255624;27;19915;-66
2021/11/02 10:38:23;;;;;;;;;;;18.70;70.00;;;;;;4267351;27;20141;-64
2021/11/02 10:40:28;;;;;;;;;;;18.80;69.80;;;;;;4268875;27;20222;-63
2021/11/02 10:42:42;;;;;;;;;;;18.80;69.70;;;;;;4245753;27;19915;-64
2021/11/02 10:44:58;;;;;;;;;;;18.80;69.60;;;;;;4251860;27;19964;-65
2021/11/02 10:47:22;;;;;;;;;;;18.80;69.50;;;;;;4260566;27;19915;-74
2021/11/02 10:49:27;;;;;;;;;;;18.90;69.50;;;;;;4248635;27;19923;-66
2021/11/02 10:51:35;;;;;;;;;;;18.90;69.40;;;;;;4254622;27;19972;-65
2021/11/02 10:53:41;;;;;;;;;;;19.00;69.40;;;;;;4254753;27;19964;-68
2021/11/02 10:56:03;;;;;;;;;;;19.00;69.30;;;;;;4252577;27;19919;-63
2021/11/02 10:58:32;;;;;;;;;;;19.00;69.20;;;;;;4258007;27;19919;-64
2021/11/02 11:00:35;;;;;;;;;;;19.00;69.10;;;;;;4253456;27;20321;-65
2021/11/02 11:02:38;;;;;;;;;;;19.10;68.90;;;;;;4254483;27;19919;-66
2021/11/02 11:04:45;;;;;;;;;;;19.10;68.60;;;;;;4270582;27;19915;-66
2021/11/02 11:06:48;;;;;;;;;;;19.10;68.40;;;;;;4244646;27;19923;-66
2021/11/02 11:08:52;;;;;;;;;;;19.20;68.20;;;;;;4252457;27;19919;-66
2021/11/02 11:10:56;;;;;;;;;;;19.10;68.30;;;;;;4247497;27;19923;-64
2021/11/02 11:13:00;;;;;;;;;;;19.20;68.40;;;;;;4252421;27;19919;-64
2021/11/02 11:15:05;;;;;;;;;;;19.20;68.40;;;;;;4266575;27;20008;-64
2021/11/02 11:17:10;;;;;;;;;;;19.20;68.50;;;;;;4263161;27;19972;-68
2021/11/02 11:19:14;;;;;;;;;;;19.20;68.60;;;;;;4251091;27;19919;-67
2021/11/02 11:21:18;;;;;;;;;;;19.20;69.00;;;;;;4247695;27;19972;-66
2021/11/02 11:23:21;;;;;;;;;;;19.10;69.60;;;;;;4258070;27;19923;-65
2021/11/02 11:25:26;;;;;;;;;;;19.20;70.10;;;;;;4261331;27;19919;-71
2021/11/02 11:27:33;;;;;;;;;;;19.00;70.40;;;;;;4258153;27;19972;-65
2021/11/02 11:29:41;;;;;;;;;;;19.00;70.80;;;;;;4253170;27;20355;-67
2021/11/02 11:31:46;;;;;;;;;;;18.90;71.20;;;;;;4248306;27;19984;-66
2021/11/02 11:33:50;;;;;;;;;;;18.90;71.50;;;;;;4258099;27;19959;-64
2021/11/02 11:35:57;;;;;;;;;;;18.90;71.70;;;;;;4247054;27;19952;-70
2021/11/02 11:38:02;;;;;;;;;;;18.80;72.00;;;;;;4252759;27;19919;-64
2021/11/02 11:40:06;;;;;;;;;;;18.80;72.00;;;;;;4258246;27;19922;-66
2021/11/02 11:42:12;;;;;;;;;;;18.80;72.10;;;;;;4261482;27;19919;-66
2021/11/02 11:44:16;;;;;;;;;;;18.80;72.30;;;;;;4252048;27;20366;-65
2021/11/02 11:46:19;;;;;;;;;;;18.80;72.30;;;;;;4263654;27;19919;-65
2021/11/02 11:48:26;;;;;;;;;;;18.80;72.40;;;;;;4255741;27;19932;-64
2021/11/02 11:50:30;;;;;;;;;;;18.70;72.50;;;;;;4259050;27;19964;-63
2021/11/02 11:52:34;;;;;;;;;;;18.70;72.90;;;;;;4261860;27;19926;-65
2021/11/02 11:54:42;;;;;;;;;;;18.70;72.50;;;;;;4251387;27;19927;-64
2021/11/02 11:56:45;;;;;;;;;;;18.70;72.60;;;;;;4263408;27;19922;-64
2021/11/02 11:58:50;;;;;;;;;;;18.70;72.60;;;;;;4254809;27;19964;-65
2021/11/02 12:00:53;;;;;;;;;;;18.70;72.60;;;;;;4258840;27;19923;-62
2021/11/02 12:02:57;;;;;;;;;;;18.70;72.60;;;;;;4255112;27;20316;-64
2021/11/02 12:05:03;;;;;;;;;;;18.70;72.60;;;;;;4259199;27;20275;-66
2021/11/02 12:07:10;;;;;;;;;;;18.70;72.60;;;;;;4253619;27;19919;-64
2021/11/02 12:09:16;;;;;;;;;;;18.60;72.10;;;;;;4258230;27;19919;-65
2021/11/02 12:11:21;;;;;;;;;;;18.70;71.70;;;;;;4250537;27;19964;-66
2021/11/02 12:13:23;;;;;;;;;;;18.70;71.00;;;;;;4248334;27;19979;-64
2021/11/02 12:15:34;;;;;;;;;;;18.70;71.50;;;;;;4258448;27;19919;-64
2021/11/02 12:17:39;;;;;;;;;;;18.70;71.90;;;;;;4256994;27;19929;-68
2021/11/02 12:19:48;;;;;;;;;;;18.70;71.60;;;;;;4261141;27;20268;-68
2021/11/02 12:22:02;;;;;;;;;;;18.70;71.70;;;;;;4261128;27;19976;-68
2021/11/02 12:24:07;;;;;;;;;;;18.60;72.10;;;;;;4257669;27;20018;-67
2021/11/02 12:26:09;;;;;;;;;;;18.70;72.60;;;;;;4249903;27;20398;-70
2021/11/02 12:28:23;;;;;;;;;;;18.70;72.30;;;;;;4246226;27;20673;-67
2021/11/02 12:30:26;;;;;;;;;;;18.70;72.50;;;;;;4258487;27;20581;-67
2021/11/02 12:32:31;;;;;;;;;;;18.80;73.30;;;;;;4245977;27;19964;-66
2021/11/02 12:34:42;;;;;;;;;;;18.80;73.10;;;;;;4249491;27;19927;-67
2021/11/02 12:36:45;;;;;;;;;;;18.80;73.50;;;;;;4261391;27;19938;-67
2021/11/02 12:38:58;;;;;;;;;;;18.80;73.80;;;;;;4268046;27;19923;-68
2021/11/02 12:41:01;;;;;;;;;;;18.80;73.60;;;;;;4265783;27;19915;-66
2021/11/02 12:43:04;;;;;;;;;;;18.90;73.60;;;;;;4252073;27;19954;-67
2021/11/02 12:45:07;;;;;;;;;;;18.90;73.10;;;;;;4251621;27;20377;-64
2021/11/02 12:47:11;;;;;;;;;;;18.90;72.90;;;;;;4252015;27;19919;-65
2021/11/02 12:49:17;;;;;;;;;;;19.00;73.20;;;;;;4246835;27;20398;-63
2021/11/02 12:51:23;;;;;;;;;;;19.00;72.30;;;;;;4246992;27;19926;-71
2021/11/02 12:53:29;;;;;;;;;;;19.10;72.10;;;;;;4246465;27;19919;-67
2021/11/02 12:55:34;;;;;;;;;;;19.10;72.00;;;;;;4252293;27;20402;-66
2021/11/02 12:57:38;;;;;;;;;;;19.10;72.00;;;;;;4257113;27;19983;-66
2021/11/02 12:59:43;;;;;;;;;;;19.10;71.90;;;;;;4259134;27;20396;-64
2021/11/02 13:01:50;;;;;;;;;;;19.10;71.80;;;;;;4249683;27;19923;-64
2021/11/02 13:03:53;;;;;;;;;;;19.20;71.80;;;;;;4261563;27;19923;-66
2021/11/02 13:05:58;;;;;;;;;;;19.10;71.70;;;;;;4254739;27;19918;-65
2021/11/02 13:08:07;;;;;;;;;;;19.20;71.70;;;;;;4249300;27;19948;-64
2021/11/02 13:10:12;;;;;;;;;;;19.20;71.60;;;;;;4227468;28;19993;-65
2021/11/02 13:12:18;;;;;;;;;;;19.20;71.60;;;;;;4257145;27;20368;-64
2021/11/02 13:14:34;;;;;;;;;;;19.10;71.50;;;;;;4245905;28;19919;-63
2021/11/02 13:16:51;;;;;;;;;;;19.20;71.60;;;;;;4249676;27;19949;-66
2021/11/02 13:18:54;;;;;;;;;;;19.10;71.60;;;;;;4247689;27;19988;-68
2021/11/02 13:21:15;;;;;;;;;;;19.10;71.70;;;;;;4248774;27;19923;-65
2021/11/02 13:23:18;;;;;;;;;;;19.10;72.10;;;;;;4256322;27;20422;-68
2021/11/02 13:25:24;;;;;;;;;;;19.10;72.60;;;;;;4255957;27;19964;-65
2021/11/02 13:27:32;;;;;;;;;;;19.10;73.40;;;;;;4257318;27;20273;-65
2021/11/02 13:29:35;;;;;;;;;;;19.10;73.90;;;;;;4245656;28;19927;-64
2021/11/02 13:31:38;;;;;;;;;;;19.10;75.20;;;;;;4253635;27;19964;-65
2021/11/02 13:33:53;;;;;;;;;;;19.20;76.40;;;;;;4253911;27;19972;-63
2021/11/02 13:35:56;;;;;;;;;;;19.20;75.60;;;;;;4247112;27;19919;-64
2021/11/02 13:38:17;;;;;;;;;;;19.20;75.30;;;;;;4251907;27;19935;-65
2021/11/02 13:40:20;;;;;;;;;;;19.20;75.20;;;;;;4265506;27;19952;-64
2021/11/02 13:42:41;;;;;;;;;;;19.20;74.90;;;;;;4253747;27;19919;-65
2021/11/02 13:44:47;;;;;;;;;;;19.20;74.80;;;;;;4262623;27;19972;-65
2021/11/02 13:46:51;;;;;;;;;;;19.20;74.70;;;;;;4259814;27;20000;-64
2021/11/02 13:48:55;;;;;;;;;;;19.20;74.70;;;;;;4253845;27;19923;-64
2021/11/02 13:50:58;;;;;;;;;;;19.20;74.60;;;;;;4256038;27;19923;-64
2021/11/02 13:53:01;;;;;;;;;;;19.20;74.40;;;;;;4252828;27;20260;-64
2021/11/02 13:55:04;;;;;;;;;;;19.20;74.30;;;;;;4256754;27;19923;-66
2021/11/02 13:57:07;;;;;;;;;;;19.20;74.30;;;;;;4256098;27;19987;-64
2021/11/02 13:59:10;;;;;;;;;;;19.20;74.30;;;;;;4251094;27;19927;-63
2021/11/02 14:01:17;;;;;;;;;;;19.20;74.70;;;;;;4254136;27;20370;-64
2021/11/02 14:03:21;;;;;;;;;;;19.20;74.70;;;;;;4259831;27;19948;-64
2021/11/02 14:05:25;;;;;;;;;;;19.20;74.30;;;;;;4249999;27;20142;-69
2021/11/02 14:07:29;;;;;;;;;;;19.20;74.20;;;;;;4247468;27;19923;-65
2021/11/02 14:09:33;;;;;;;;;;;19.20;73.80;;;;;;4253726;27;19965;-63
2021/11/02 14:11:37;;;;;;;;;;;19.20;73.80;;;;;;4259018;27;19964;-64
2021/11/02 14:13:41;;;;;;;;;;;19.20;74.10;;;;;;4259721;27;20267;-63
2021/11/02 14:15:44;;;;;;;;;;;19.30;74.10;;;;;;4262721;27;20065;-64
2021/11/02 14:18:08;;;;;;;;;;;19.20;74.10;;;;;;4259413;27;19996;-65
2021/11/02 14:20:11;;;;;;;;;;;19.30;74.20;;;;;;4257952;27;19963;-64
2021/11/02 14:22:15;;;;;;;;;;;19.30;73.80;;;;;;4261740;27;19919;-65
2021/11/02 14:24:29;;;;;;;;;;;19.30;73.60;;;;;;4254160;27;19976;-66
2021/11/02 14:26:37;;;;;;;;;;;19.30;73.60;;;;;;4250740;27;19923;-64
2021/11/02 14:28:45;;;;;;;;;;;19.30;73.20;;;;;;4257403;27;19923;-65
2021/11/02 14:30:48;;;;;;;;;;;19.30;73.00;;;;;;4254402;27;19976;-64
2021/11/02 14:32:53;;;;;;;;;;;19.30;72.80;;;;;;4252930;27;19976;-64
2021/11/02 14:34:56;;;;;;;;;;;19.30;72.60;;;;;;4258494;27;19923;-65
2021/11/02 14:37:08;;;;;;;;;;;19.30;72.50;;;;;;4229635;28;19919;-64
2021/11/02 14:39:12;;;;;;;;;;;19.30;72.60;;;;;;4256878;27;19926;-64
2021/11/02 14:41:28;;;;;;;;;;;19.30;72.60;;;;;;4252037;27;19919;-64
2021/11/02 14:43:32;;;;;;;;;;;19.30;72.60;;;;;;4259207;27;19926;-62
2021/11/02 14:45:38;;;;;;;;;;;19.30;72.60;;;;;;4261891;27;19919;-64
2021/11/02 14:47:41;;;;;;;;;;;19.30;72.70;;;;;;4259734;27;19923;-62
2021/11/02 14:49:46;;;;;;;;;;;19.30;72.80;;;;;;4241045;27;20318;-65
2021/11/02 14:51:54;;;;;;;;;;;19.30;72.90;;;;;;4250607;27;19923;-64
2021/11/02 14:53:57;;;;;;;;;;;19.30;72.60;;;;;;4256008;27;19952;-64
2021/11/02 14:56:01;;;;;;;;;;;19.30;72.80;;;;;;4236814;27;19924;-68
2021/11/02 14:58:06;;;;;;;;;;;19.30;73.00;;;;;;4261835;27;20355;-62
2021/11/02 15:00:09;;;;;;;;;;;19.30;73.20;;;;;;4261645;27;19915;-62
2021/11/02 15:02:15;;;;;;;;;;;19.30;73.00;;;;;;4234322;27;19915;-63
2021/11/02 15:04:19;;;;;;;;;;;19.30;72.90;;;;;;4252589;27;20456;-63
2021/11/02 15:06:28;;;;;;;;;;;19.30;73.00;;;;;;4251170;27;19971;-65
2021/11/02 15:08:31;;;;;;;;;;;19.30;73.00;;;;;;4248367;27;20039;-63
2021/11/02 15:10:34;;;;;;;;;;;19.30;73.10;;;;;;4259484;27;19919;-62
2021/11/02 15:12:37;;;;;;;;;;;19.30;72.90;;;;;;4249277;27;19972;-61
2021/11/02 15:14:41;;;;;;;;;;;19.30;72.90;;;;;;4250111;27;19960;-63
2021/11/02 15:16:44;;;;;;;;;;;19.30;72.80;;;;;;4258236;27;19919;-62
2021/11/02 15:18:49;;;;;;;;;;;19.30;72.70;;;;;;4247935;27;19923;-64
2021/11/02 15:21:01;;;;;;;;;;;19.30;72.80;;;;;;4233854;27;19920;-63
2021/11/02 15:23:08;;;;;;;;;;;19.30;73.40;;;;;;4253679;27;19920;-63
2021/11/02 15:25:12;;;;;;;;;;;19.30;73.80;;;;;;4230670;27;19992;-64
2021/11/02 15:27:15;;;;;;;;;;;19.30;72.60;;;;;;4256411;27;19943;-65
2021/11/02 15:29:20;;;;;;;;;;;19.30;71.60;;;;;;4265192;27;19972;-65
2021/11/02 15:31:23;;;;;;;;;;;19.20;71.20;;;;;;4251648;27;19978;-64
2021/11/02 15:33:26;;;;;;;;;;;19.20;71.50;;;;;;4247616;27;19919;-64
2021/11/02 15:35:29;;;;;;;;;;;19.20;71.30;;;;;;4251241;27;20390;-62
2021/11/02 15:37:33;;;;;;;;;;;19.20;71.70;;;;;;4249440;27;19919;-63
2021/11/02 15:39:38;;;;;;;;;;;19.20;71.60;;;;;;4245722;27;19931;-69
2021/11/02 15:41:41;;;;;;;;;;;19.20;72.50;;;;;;4255739;27;19923;-67
2021/11/02 15:43:50;;;;;;;;;;;19.20;73.40;;;;;;4262825;27;19956;-68
2021/11/02 15:45:53;;;;;;;;;;;19.20;73.40;;;;;;4251803;27;19919;-69
2021/11/02 15:48:02;;;;;;;;;;;19.30;73.30;;;;;;4255408;27;19926;-71
2021/11/02 15:50:06;;;;;;;;;;;19.30;72.30;;;;;;4237388;27;19920;-69
2021/11/02 15:52:09;;;;;;;;;;;19.30;72.30;;;;;;4253468;27;19929;-68
2021/11/02 15:54:13;;;;;;;;;;;19.30;72.20;;;;;;4246550;27;19920;-69
2021/11/02 15:56:24;;;;;;;;;;;19.30;72.20;;;;;;4253732;27;19927;-69
2021/11/02 15:58:27;;;;;;;;;;;19.30;71.90;;;;;;4253439;27;19924;-69
2021/11/02 16:00:31;;;;;;;;;;;19.30;71.80;;;;;;4246207;27;19919;-68
2021/11/02 16:02:39;;;;;;;;;;;19.30;71.60;;;;;;4240166;27;19920;-67
2021/11/02 16:04:42;;;;;;;;;;;19.30;71.60;;;;;;4236156;27;19919;-66
2021/11/02 16:06:58;;;;;;;;;;;19.30;71.70;;;;;;4259139;27;19919;-65
2021/11/02 16:09:06;;;;;;;;;;;19.40;71.40;;;;;;4251885;27;19949;-63
2021/11/02 16:11:09;;;;;;;;;;;19.30;71.20;;;;;;4247353;27;20542;-63
2021/11/02 16:13:13;;;;;;;;;;;19.20;70.50;;;;;;4239510;27;20408;-63
2021/11/02 16:15:18;;;;;;;;;;;19.20;70.30;;;;;;4245995;27;20558;-63
2021/11/02 16:17:21;;;;;;;;;;;19.10;70.00;;;;;;4252110;27;19971;-65
2021/11/02 16:19:24;;;;;;;;;;;19.10;69.80;;;;;;4257924;27;19923;-67
2021/11/02 16:21:32;;;;;;;;;;;19.10;69.90;;;;;;4261231;27;20324;-66
2021/11/02 16:23:40;;;;;;;;;;;19.10;70.40;;;;;;4251625;27;20290;-66
2021/11/02 16:26:00;;;;;;;;;;;19.00;70.20;;;;;;4246061;27;20357;-65
2021/11/02 16:28:15;;;;;;;;;;;19.00;70.00;;;;;;4256950;27;19956;-66
2021/11/02 16:30:19;;;;;;;;;;;19.00;69.90;;;;;;4245797;27;20291;-66
2021/11/02 16:32:23;;;;;;;;;;;19.00;70.10;;;;;;4248577;27;20375;-66
2021/11/02 16:34:26;;;;;;;;;;;18.90;70.10;;;;;;4254156;27;19923;-69
2021/11/02 16:36:30;;;;;;;;;;;18.90;70.30;;;;;;4228835;27;19920;-68
2021/11/02 16:38:33;;;;;;;;;;;18.90;70.30;;;;;;4250831;27;19919;-72
2021/11/02 16:40:42;;;;;;;;;;;18.80;70.30;;;;;;4257677;27;19923;-69
2021/11/02 16:43:06;;;;;;;;;;;18.80;70.30;;;;;;4258756;27;19963;-68
2021/11/02 16:45:11;;;;;;;;;;;18.70;70.30;;;;;;4248641;27;19927;-67
2021/11/02 16:47:22;;;;;;;;;;;18.70;70.60;;;;;;4261452;27;19958;-70
2021/11/02 16:49:25;;;;;;;;;;;18.70;70.80;;;;;;4255507;27;20536;-69
2021/11/02 16:51:42;;;;;;;;;;;18.70;71.00;;;;;;4245905;27;20077;-69
2021/11/02 16:53:45;;;;;;;;;;;18.60;71.10;;;;;;4254709;27;20505;-67
2021/11/02 16:55:47;;;;;;;;;;;18.60;71.20;;;;;;4262638;27;19919;-68
2021/11/02 16:58:11;;;;;;;;;;;18.60;71.40;;;;;;4261201;27;19919;-68
2021/11/02 17:00:26;;;;;;;;;;;18.60;71.70;;;;;;4253032;27;19919;-68
2021/11/02 17:02:29;;;;;;;;;;;18.70;71.70;;;;;;4262372;27;19919;-68
2021/11/02 17:04:32;;;;;;;;;;;18.70;71.60;;;;;;4249081;27;19919;-68
2021/11/02 17:06:36;;;;;;;;;;;18.60;71.60;;;;;;4262686;27;19919;-68
2021/11/02 17:08:45;;;;;;;;;;;18.60;71.70;;;;;;4258502;27;19919;-67
2021/11/02 17:10:50;;;;;;;;;;;18.50;71.80;;;;;;4254573;27;19988;-67